Latest Weather Observations for Smithton

IDT60801

Issued at 3:01 am EST Friday 19 August 2022 (issued every 10 minutes, with the page automatically refreshed every 10 minutes)

About weather observations | Map of weather stations | Latest weather observations for TAS | Other Formats
Station Details ID: 091292 Name: SMITHTON AERODROME Lat: -40.83 Lon: 145.08 Height: 7.5 m
Data from the previous 72 hours. | See also: Recent months at Smithton
Date/Time
EST
Temp
°C
App
Temp
°C
Dew
Point
°C
Rel
Hum
%
Delta-T
°C
Wind Press
QNH
hPa
Press
MSL
hPa
Rain since
9am
mm
Dir  Spd
km/h
Gust
km/h
Spd
kts
Gust
kts
19/03:00am 6.4 2.7 4.7 89 0.7 W 13 15 7 8 1006.7 1006.7 3.4
19/02:36am 7.6 3.2 6.5 93 0.5 W 19 35 10 19 1006.9 1006.9 3.2
19/02:30am 6.5 2.9 5.0 90 0.7 W 13 15 7 8 1006.7 1006.7 3.2
19/02:00am 7.7 3.3 6.5 92 0.6 W 19 32 10 17 1006.5 1006.5 3.0
19/01:30am 7.0 4.2 5.3 89 0.8 W 9 17 5 9 1006.2 1006.2 3.0
19/01:00am 6.9 2.9 4.9 87 0.9 W 15 17 8 9 1006.0 1006.0 1.8
19/12:30am 6.9 3.2 4.7 86 1.0 W 13 17 7 9 1005.5 1005.5 1.8
19/12:00am 8.6 4.0 5.5 81 1.4 WSW 19 24 10 13 1005.4 1005.4 1.8
 
Date/Time
EST
Temp
°C
App
Temp
°C
Dew
Point
°C
Rel
Hum
%
Delta-T
°C
Wind Press
QNH
hPa
Press
MSL
hPa
Rain since
9am
mm
Dir  Spd
km/h
Gust
km/h
Spd
kts
Gust
kts
18/11:30pm 9.1 4.3 5.8 80 1.5 WSW 20 26 11 14 1005.4 1005.4 1.8
18/11:00pm 9.5 4.0 5.9 78 1.7 W 24 30 13 16 1005.2 1005.2 1.8
18/10:30pm 9.4 4.9 6.3 81 1.4 W 19 24 10 13 1005.1 1005.1 1.8
18/10:00pm 9.3 4.9 6.6 83 1.3 WNW 19 24 10 13 1005.2 1005.2 1.8
18/09:30pm 9.2 5.2 6.6 84 1.2 W 17 20 9 11 1004.9 1004.9 1.8
18/09:00pm 9.2 4.8 6.5 83 1.3 WNW 19 26 10 14 1004.6 1004.6 1.8
18/08:30pm 8.9 5.7 6.9 87 0.9 WNW 13 15 7 8 1004.3 1004.3 1.8
18/08:00pm 9.3 5.8 7.1 86 1.0 WNW 15 19 8 10 1004.3 1004.3 1.8
18/07:30pm 9.1 5.2 6.9 86 1.0 W 17 22 9 12 1004.2 1004.2 1.8
18/07:00pm 9.7 5.3 7.6 87 1.0 W 20 26 11 14 1003.7 1003.7 1.8
18/06:30pm 10.2 6.6 8.5 89 0.8 W 17 20 9 11 1003.4 1003.4 1.8
18/06:00pm 9.9 6.7 8.3 90 0.8 W 15 19 8 10 1002.8 1002.8 1.6
18/05:30pm 10.3 6.7 8.4 88 0.9 WSW 17 22 9 12 1002.2 1002.2 1.6
18/05:00pm 11.2 7.0 8.1 81 1.5 WSW 20 28 11 15 1001.9 1001.9 1.6
18/04:30pm 12.0 7.0 8.1 77 1.9 W 24 32 13 17 1001.5 1001.5 1.6
18/04:00pm 12.1 5.7 8.6 79 1.7 W 32 41 17 22 1001.1 1001.1 1.6
18/03:37pm 12.3 5.1 9.0 80 1.7 W 37 56 20 30 1000.7 1000.7 1.6
18/03:30pm 12.2 4.1 8.5 78 1.8 W 41 56 22 30 1000.4 1000.4 1.6
18/03:00pm 12.5 4.6 9.5 82 1.5 W 41 54 22 29 999.7 999.7 1.6
18/02:30pm 12.5 5.5 11.1 91 0.7 WNW 39 56 21 30 999.4 999.4 1.6
18/02:13pm 13.2 6.3 10.4 83 1.5 WNW 37 56 20 30 999.2 999.2 0.8
18/02:00pm 14.1 6.5 10.5 79 1.9 WNW 41 57 22 31 999.1 999.1 0.8
18/01:51pm 13.9 6.2 10.3 79 1.9 WNW 41 59 22 32 999.0 999.0 0.8
18/01:30pm 13.5 5.7 11.0 85 1.3 WNW 43 57 23 31 999.1 999.1 0.8
18/01:00pm 15.6 7.0 11.8 78 2.1 NW 48 67 26 36 998.9 998.9 0.6
18/12:30pm 14.9 7.1 11.3 79 1.9 NW 43 63 23 34 999.0 999.0 0.6
18/12:29pm 14.9 7.1 11.1 78 2.0 NW 43 63 23 34 999.0 999.0 0.6
18/12:05pm 13.9 9.3 12.3 90 0.9 NW 28 54 15 29 999.2 999.2 0.6
18/12:00pm 13.1 9.5 12.0 93 0.6 WNW 22 33 12 18 999.3 999.3 0.6
18/11:30am 12.0 2.8 9.6 85 1.2 WNW 48 72 26 39 999.8 999.8 0.4
18/11:28am 12.2 2.6 9.6 84 1.3 NW 50 72 27 39 999.8 999.8 0.4
18/11:09am 15.7 8.7 11.3 75 2.4 NW 39 59 21 32 999.6 999.6 0.0
18/11:00am 14.5 6.4 10.7 78 2.0 NW 44 57 24 31 999.7 999.7 0.0
18/10:50am 15.1 7.7 11.1 77 2.1 NW 41 59 22 32 999.6 999.6 0.0
18/10:30am 14.9 6.8 10.7 76 2.2 NNW 44 61 24 33 999.6 999.6 0.0
18/10:05am 13.9 5.9 10.3 79 1.9 NNW 43 67 23 36 999.7 999.7 0.0
18/10:00am 13.8 5.7 10.6 81 1.7 NNW 44 59 24 32 999.7 999.7 0.0
18/09:39am 13.3 5.4 10.8 85 1.3 NNW 43 63 23 34 1000.0 1000.0 0.0
18/09:30am 13.1 5.1 10.6 85 1.3 NNW 43 59 23 32 1000.0 1000.0 0.0
18/09:04am 13.4 6.9 10.4 82 1.6 NNW 35 54 19 29 1000.2 1000.2 0.0
18/09:00am 13.3 6.9 10.7 84 1.4 NNW 35 46 19 25 1000.3 1000.3 -
18/08:31am 12.7 7.2 10.4 86 1.2 N 30 52 16 28 1000.6 1000.6 -
18/08:30am 12.7 8.0 10.6 87 1.1 N 26 39 14 21 1000.6 1000.6 5.8
18/08:00am 12.4 9.1 10.8 90 0.8 NNW 19 26 10 14 1001.1 1001.1 5.8
18/07:30am 12.0 8.4 10.6 91 0.7 NNW 20 32 11 17 1001.0 1001.0 5.8
18/07:00am 12.0 7.7 10.7 92 0.7 N 24 33 13 18 1001.1 1001.1 5.8
18/06:30am 12.3 8.0 10.7 90 0.8 NNW 24 37 13 20 1001.8 1001.8 5.6
18/06:00am 12.6 8.2 10.5 87 1.1 NNW 24 33 13 18 1002.0 1002.0 5.6
18/05:30am 12.6 7.5 10.5 87 1.1 NNW 28 37 15 20 1002.1 1002.1 5.6
18/05:00am 12.5 7.4 10.7 89 0.9 NNW 28 37 15 20 1002.9 1002.9 5.6
18/04:30am 12.5 8.6 10.9 90 0.8 NNW 22 28 12 15 1003.2 1003.2 5.6
18/04:00am 12.2 7.6 10.9 92 0.7 NW 26 39 14 21 1003.1 1003.1 5.6
18/03:30am 12.4 7.8 11.0 91 0.7 NNW 26 35 14 19 1003.7 1003.7 5.6
18/03:00am 12.1 8.5 10.7 91 0.7 N 20 28 11 15 1004.0 1004.0 5.6
18/02:30am 12.0 8.1 10.7 92 0.7 N 22 35 12 19 1004.1 1004.1 5.6
18/02:00am 11.8 7.5 10.9 94 0.5 N 24 32 13 17 1005.0 1005.0 5.6
18/01:30am 11.9 8.4 11.0 94 0.5 N 20 30 11 16 1005.7 1005.7 5.4
18/01:00am 11.9 8.1 11.0 94 0.5 N 22 30 12 16 1006.6 1006.6 5.4
18/12:30am 11.8 8.3 10.9 94 0.5 N 20 30 11 16 1007.2 1007.2 5.2
18/12:00am 11.9 7.6 10.6 92 0.7 N 24 32 13 17 1007.4 1007.4 5.2
 
Date/Time
EST
Temp
°C
App
Temp
°C
Dew
Point
°C
Rel
Hum
%
Delta-T
°C
Wind Press
QNH
hPa
Press
MSL
hPa
Rain since
9am
mm
Dir  Spd
km/h
Gust
km/h
Spd
kts
Gust
kts
17/11:30pm 11.8 8.4 10.5 92 0.7 N 19 28 10 15 1007.9 1007.9 5.2
17/11:00pm 11.8 8.4 10.5 92 0.7 N 19 26 10 14 1008.4 1008.4 5.2
17/10:30pm 11.5 8.1 10.4 93 0.6 N 19 28 10 15 1008.6 1008.6 5.0
17/10:00pm 11.5 8.9 10.6 94 0.5 N 15 22 8 12 1009.4 1009.4 5.0
17/09:30pm 11.4 8.0 10.5 94 0.5 N 19 26 10 14 1009.4 1009.4 5.0
17/09:00pm 11.4 8.0 10.5 94 0.5 N 19 26 10 14 1010.3 1010.3 4.4
17/08:30pm 11.2 7.7 10.3 94 0.5 N 19 24 10 13 1010.1 1010.1 4.4
17/08:00pm 11.4 8.0 10.6 95 0.4 N 19 26 10 14 1010.0 1010.0 4.0
17/07:30pm 11.2 8.1 10.4 95 0.4 N 17 24 9 13 1010.6 1010.6 3.4
17/07:00pm 11.3 8.3 10.5 95 0.4 N 17 22 9 12 1010.9 1010.9 2.2
17/06:30pm 11.4 8.7 10.5 94 0.5 N 15 20 8 11 1010.7 1010.7 1.2
17/06:00pm 11.4 7.9 10.3 93 0.6 N 19 24 10 13 1010.9 1010.9 0.4
17/05:30pm 11.6 8.0 10.0 90 0.8 NNE 19 26 10 14 1011.1 1011.1 0.0
17/05:00pm 11.6 8.0 9.7 88 1.0 N 19 26 10 14 1011.5 1011.5 0.0
17/04:30pm 11.7 8.0 9.4 86 1.2 N 19 24 10 13 1011.9 1011.9 0.0
17/04:00pm 11.9 8.0 9.5 85 1.2 N 20 26 11 14 1012.1 1012.1 0.0
17/03:30pm 12.1 8.3 9.8 86 1.2 N 20 28 11 15 1012.6 1012.6 0.0
17/03:00pm 12.4 8.5 9.6 83 1.4 N 20 30 11 16 1013.1 1013.1 0.0
17/02:30pm 12.4 8.0 9.1 80 1.7 N 22 33 12 18 1013.2 1013.2 0.0
17/02:00pm 13.1 8.5 9.5 79 1.8 N 24 32 13 17 1012.8 1012.8 0.0
17/01:30pm 13.3 9.4 9.4 77 2.0 NNE 20 30 11 16 1012.9 1012.9 0.0
17/01:00pm 13.5 9.9 9.9 79 1.9 NNE 19 26 10 14 1014.0 1014.0 0.0
17/12:30pm 12.2 8.3 8.5 78 1.8 N 19 26 10 14 1014.8 1014.8 0.0
17/12:00pm 12.3 8.4 8.8 79 1.7 NNE 19 22 10 12 1015.0 1015.0 0.0
17/11:30am 12.2 8.2 8.3 77 1.9 NNE 19 24 10 13 1016.0 1016.0 0.0
17/11:00am 11.7 8.0 7.8 77 1.9 N 17 22 9 12 1016.5 1016.5 0.0
17/10:30am 12.0 8.0 8.3 78 1.8 N 19 24 10 13 1016.8 1016.8 0.0
17/10:00am 11.1 8.9 9.4 89 0.9 NNE 11 15 6 8 1017.0 1017.0 0.0
17/09:30am 10.2 8.0 9.4 95 0.4 NNE 11 13 6 7 1017.0 1017.0 0.0
17/09:00am 9.4 8.5 9.1 98 0.1 NNE 4 6 2 3 1016.8 1016.8 0.4
17/08:30am 7.4 6.7 7.1 98 0.1 CALM 0 0 0 0 1016.9 1016.9 0.4
17/08:00am 5.1 3.9 4.7 97 0.2 CALM 0 6 0 3 1017.0 1017.0 0.4
17/07:30am 4.8 3.6 4.4 97 0.2 CALM 0 0 0 0 1016.7 1016.7 0.4
17/07:00am 5.8 4.8 5.4 97 0.2 CALM 0 0 0 0 1016.4 1016.4 0.4
17/06:30am 6.0 5.0 5.6 97 0.2 CALM 0 0 0 0 1016.6 1016.6 0.4
17/06:00am 6.4 4.7 6.0 97 0.2 SW 4 9 2 5 1016.7 1016.7 0.4
17/05:30am 5.9 3.7 5.5 97 0.2 SW 6 9 3 5 1016.6 1016.6 0.4
17/05:00am 5.2 3.7 4.8 97 0.2 WSW 2 9 1 5 1016.7 1016.7 0.4
17/04:30am 4.8 3.5 4.2 96 0.3 CALM 0 6 0 3 1016.6 1016.6 0.4
17/04:00am 4.8 1.8 4.2 96 0.3 SW 9 9 5 5 1015.9 1015.9 0.4
17/03:30am 5.6 3.1 5.0 96 0.3 WSW 7 9 4 5 1015.9 1015.9 0.2
17/03:00am 5.7 1.7 5.1 96 0.3 WSW 15 17 8 9 1015.9 1015.9 0.2
17/02:30am 6.1 3.7 5.4 95 0.3 W 7 11 4 6 1016.1 1016.1 0.2
17/02:00am 6.3 4.6 5.7 96 0.3 NNW 4 9 2 5 1016.1 1016.1 0.2
17/01:30am 6.4 2.6 5.7 95 0.3 SW 15 17 8 9 1015.6 1015.6 0.2
17/01:00am 7.8 4.7 7.1 95 0.3 SSW 13 20 7 11 1016.0 1016.0 0.2
17/12:30am 8.1 4.3 7.5 96 0.3 SW 17 22 9 12 1016.0 1016.0 0.2
17/12:00am 8.1 4.7 7.7 97 0.2 WSW 15 24 8 13 1015.9 1015.9 0.2
 
Date/Time
EST
Temp
°C
App
Temp
°C
Dew
Point
°C
Rel
Hum
%
Delta-T
°C
Wind Press
QNH
hPa
Press
MSL
hPa
Rain since
9am
mm
Dir  Spd
km/h
Gust
km/h
Spd
kts
Gust
kts
16/11:30pm 7.5 4.3 6.9 96 0.3 SW 13 19 7 10 1015.8 1015.8 0.2
16/11:00pm 7.7 4.2 7.1 96 0.3 SW 15 22 8 12 1016.2 1016.2 0.0
16/10:30pm 8.1 4.3 7.5 96 0.3 SW 17 20 9 11 1016.0 1016.0 0.0
16/10:00pm 7.8 3.9 7.1 95 0.3 SSW 17 19 9 10 1015.9 1015.9 0.0
16/09:30pm 8.4 5.4 7.6 95 0.4 SSW 13 17 7 9 1016.0 1016.0 0.0
16/09:00pm 8.7 5.0 7.9 95 0.4 SW 17 24 9 13 1015.8 1015.8 0.0
16/08:30pm 8.9 5.6 8.1 95 0.4 SW 15 20 8 11 1015.5 1015.5 0.0
16/08:00pm 9.2 4.7 8.4 95 0.4 SSW 22 28 12 15 1015.2 1015.2 0.0
16/07:30pm 9.4 5.3 8.5 94 0.4 SSW 20 26 11 14 1015.3 1015.3 0.0
16/07:00pm 9.9 5.5 8.8 93 0.5 SW 22 30 12 16 1015.5 1015.5 0.0
16/06:30pm 10.3 5.5 8.9 91 0.7 SW 24 33 13 18 1015.4 1015.4 0.0
16/06:00pm 10.8 5.3 9.1 89 0.8 SW 28 37 15 20 1014.7 1014.7 0.0
16/05:30pm 10.9 6.5 9.0 88 0.9 SW 22 28 12 15 1013.3 1013.3 0.0
16/05:00pm 12.1 8.3 9.7 85 1.2 SW 20 30 11 16 1012.6 1012.6 0.0
16/04:30pm 12.7 8.2 9.9 83 1.4 SSW 24 33 13 18 1012.0 1012.0 0.0
16/04:00pm 13.1 7.7 9.5 79 1.8 SSW 28 39 15 21 1011.7 1011.7 0.0
16/03:30pm 13.5 7.6 10.5 82 1.6 SW 32 41 17 22 1011.4 1011.4 0.0
16/03:00pm 13.2 7.3 10.6 84 1.4 SW 32 41 17 22 1011.3 1011.3 0.0
16/02:30pm 13.6 8.6 11.0 84 1.4 SW 28 39 15 21 1011.0 1011.0 0.0
16/02:00pm 14.0 8.6 11.0 82 1.6 SW 30 43 16 23 1010.8 1010.8 0.0
16/01:30pm 14.1 9.5 11.1 82 1.6 SW 26 33 14 18 1010.5 1010.5 0.0
16/01:00pm 13.6 8.1 10.6 82 1.6 SSW 30 44 16 24 1010.2 1010.2 0.0
16/12:30pm 13.6 9.2 11.8 89 1.0 SSW 26 35 14 19 1010.1 1010.1 0.0
16/12:00pm 13.7 8.7 10.9 83 1.5 SW 28 39 15 21 1010.2 1010.2 0.0
16/11:30am 13.6 8.6 11.0 84 1.4 SSW 28 37 15 20 1010.0 1010.0 0.0
16/11:00am 12.9 7.9 10.8 87 1.1 SW 28 35 15 19 1009.6 1009.6 0.0
16/10:30am 13.3 9.8 10.8 85 1.3 SW 20 28 11 15 1009.2 1009.2 0.0
16/10:00am 12.5 8.2 10.6 88 1.0 SW 24 33 13 18 1008.9 1008.9 0.0
16/09:30am 11.7 8.1 10.4 92 0.7 SW 20 30 11 16 1008.6 1008.6 0.0
16/09:00am 11.3 7.7 9.9 91 0.7 SW 19 26 10 14 1008.2 1008.2 3.6
16/08:30am 10.6 7.3 9.4 92 0.6 SW 17 22 9 12 1007.8 1007.8 3.6
16/08:00am 10.4 7.4 9.3 93 0.5 WSW 15 20 8 11 1007.1 1007.1 3.6
16/07:30am 10.2 6.3 9.3 94 0.4 SW 20 28 11 15 1006.5 1006.5 3.6
16/07:00am 10.3 6.0 9.5 95 0.4 SW 22 32 12 17 1005.8 1005.8 3.6
16/06:30am 9.9 6.1 9.1 95 0.4 SW 19 28 10 15 1005.3 1005.3 3.6
16/06:00am 10.1 6.2 9.3 95 0.4 SW 20 26 11 14 1004.9 1004.9 3.6
16/05:30am 9.7 6.2 8.8 94 0.4 SW 17 20 9 11 1004.6 1004.6 3.6
16/05:00am 9.2 5.5 8.1 93 0.5 SW 17 20 9 11 1004.3 1004.3 3.6
16/04:30am 9.4 5.8 8.5 94 0.4 SW 17 22 9 12 1003.9 1003.9 3.6
16/04:00am 9.0 6.0 7.9 93 0.5 SSW 13 17 7 9 1003.4 1003.4 3.6
16/03:30am 9.6 5.5 8.5 93 0.5 SW 20 28 11 15 1003.1 1003.1 3.6

Other formats

Comma delimited format used in spreadsheet applications
http://www.bom.gov.au/fwo/IDT60801/IDT60801.94953.axf

JavaScript Object Notation format (JSON) in row-major order
http://www.bom.gov.au/fwo/IDT60801/IDT60801.94953.json

Data quality

Most of these data are generated automatically and are frequently updated. Quality checks on data are not normally performed. It is possible for incorrect values to appear. Refer to information at About Latest Weather Observations and please check the disclaimer before using these data.